Time;durP1;ratioP1;P1;durP2;ratioP2;P2;SDS_P1;SDS_P2;PMS_P1;PMS_P2;Temp;Humidity;BMP_temperature;BMP_pressure;BME280_temperature;BME280_humidity;BME280_pressure;Samples;Min_cycle;Max_cycle;Signal;HPM_P1;HPM_P2
2022/07/22 00:01:20;;;;;;;7.68;2.22;;;17.00;99.90;;;;;;5018812;28;20060;-52
2022/07/22 00:03:46;;;;;;;8.05;1.80;;;17.00;99.90;;;;;;5030205;28;20076;-51
2022/07/22 00:06:11;;;;;;;5.65;2.08;;;17.00;99.90;;;;;;5029572;28;20037;-49
2022/07/22 00:08:37;;;;;;;7.15;1.70;;;17.00;99.90;;;;;;5030846;28;20443;-52
2022/07/22 00:11:03;;;;;;;5.93;2.10;;;17.00;99.90;;;;;;5028394;28;20041;-52
2022/07/22 00:13:29;;;;;;;7.70;1.75;;;17.00;99.90;;;;;;5029444;28;20045;-52
2022/07/22 00:15:54;;;;;;;9.88;2.38;;;16.90;99.90;;;;;;5016555;28;20498;-51
2022/07/22 00:18:20;;;;;;;10.00;2.67;;;16.90;99.90;;;;;;5010902;28;20400;-52
2022/07/22 00:20:47;;;;;;;10.52;2.25;;;16.90;99.90;;;;;;5020351;28;20074;-51
2022/07/22 00:23:12;;;;;;;5.45;2.83;;;16.90;99.90;;;;;;5011080;28;20503;-49
2022/07/22 00:25:38;;;;;;;17.05;2.10;;;16.80;99.90;;;;;;5011381;28;20048;-52
2022/07/22 00:28:03;;;;;;;11.98;2.72;;;16.80;99.90;;;;;;5016632;28;20037;-51
2022/07/22 00:30:29;;;;;;;9.13;2.15;;;16.80;99.90;;;;;;5022450;28;20100;-52
2022/07/22 00:32:55;;;;;;;9.68;2.15;;;16.80;99.90;;;;;;5028156;28;20041;-51
2022/07/22 00:35:20;;;;;;;6.88;1.75;;;16.80;99.90;;;;;;5014222;28;20050;-52
2022/07/22 00:37:46;;;;;;;9.73;2.67;;;16.80;99.90;;;;;;5011980;28;20038;-51
2022/07/22 00:40:12;;;;;;;6.07;2.08;;;16.80;99.90;;;;;;5013572;28;20041;-51
2022/07/22 00:42:37;;;;;;;7.93;1.88;;;16.80;99.90;;;;;;5026158;28;20081;-51
2022/07/22 00:45:03;;;;;;;11.43;2.63;;;16.80;99.90;;;;;;5030400;28;20037;-52
2022/07/22 00:47:29;;;;;;;13.25;2.40;;;16.80;99.90;;;;;;5027714;28;20041;-51
2022/07/22 00:49:55;;;;;;;9.80;2.00;;;16.80;99.90;;;;;;5017504;28;20395;-50
2022/07/22 00:52:24;;;;;;;12.98;2.40;;;16.80;99.90;;;;;;5023603;28;20052;-51
2022/07/22 00:54:50;;;;;;;11.48;3.03;;;16.80;99.90;;;;;;5022718;28;20369;-52
2022/07/22 00:57:16;;;;;;;8.32;2.22;;;16.70;99.90;;;;;;5011547;28;20099;-49
2022/07/22 00:59:42;;;;;;;11.00;2.17;;;16.70;99.90;;;;;;5010863;28;20041;-52
2022/07/22 01:02:08;;;;;;;;;;;16.70;99.90;;;;;;5020442;28;20033;-51
2022/07/22 01:04:33;;;;;;;12.95;3.22;;;16.70;99.90;;;;;;5029941;28;20433;-52
2022/07/22 01:06:59;;;;;;;10.50;2.25;;;16.70;99.90;;;;;;5024146;28;20040;-52
2022/07/22 01:09:25;;;;;;;15.48;2.88;;;16.70;99.90;;;;;;5030222;28;20067;-51
2022/07/22 01:11:50;;;;;;;9.07;2.00;;;16.70;99.90;;;;;;5021151;28;20123;-50
2022/07/22 01:14:16;;;;;;;14.30;2.90;;;16.70;99.90;;;;;;5030072;28;20047;-52
2022/07/22 01:16:41;;;;;;;18.00;2.90;;;16.70;99.90;;;;;;5025385;28;20033;-52
2022/07/22 01:19:07;;;;;;;13.85;2.47;;;16.70;99.90;;;;;;5023735;28;20482;-52
2022/07/22 01:21:33;;;;;;;7.65;2.45;;;16.70;99.90;;;;;;5025906;28;20445;-51
2022/07/22 01:23:59;;;;;;;9.98;3.03;;;16.70;99.90;;;;;;5013376;28;20126;-51
2022/07/22 01:26:24;;;;;;;9.93;3.03;;;16.70;99.90;;;;;;5022673;28;20105;-51
2022/07/22 01:28:50;;;;;;;18.15;3.50;;;16.70;99.90;;;;;;5010985;28;20040;-50
2022/07/22 01:31:15;;;;;;;14.18;3.35;;;16.70;99.90;;;;;;5010693;28;20077;-51
2022/07/22 01:33:42;;;;;;;9.73;2.00;;;16.70;99.90;;;;;;5027876;28;20041;-51
2022/07/22 01:36:07;;;;;;;6.65;2.38;;;16.70;99.90;;;;;;5031642;28;20069;-48
2022/07/22 01:38:33;;;;;;;7.90;2.63;;;16.80;99.90;;;;;;5032175;28;20091;-49
2022/07/22 01:40:59;;;;;;;8.80;2.58;;;16.70;99.90;;;;;;5032938;28;20037;-50
2022/07/22 01:43:24;;;;;;;14.18;4.07;;;16.70;99.90;;;;;;5018520;28;20112;-50
2022/07/22 01:45:51;;;;;;;9.52;2.25;;;16.80;99.90;;;;;;5014270;28;20077;-51
2022/07/22 01:48:18;;;;;;;10.23;2.22;;;16.70;99.90;;;;;;5014778;28;20029;-49
2022/07/22 01:50:44;;;;;;;9.05;2.28;;;16.70;99.90;;;;;;5022217;28;20126;-52
2022/07/22 01:53:10;;;;;;;7.20;2.05;;;16.70;99.90;;;;;;5025157;28;20061;-50
2022/07/22 01:55:36;;;;;;;10.60;2.78;;;16.70;99.90;;;;;;5013572;28;20068;-51
2022/07/22 01:58:03;;;;;;;13.25;2.17;;;16.70;99.90;;;;;;5023808;28;20479;-51
2022/07/22 02:00:29;;;;;;;9.25;1.55;;;16.70;99.90;;;;;;5032563;28;20091;-51
2022/07/22 02:02:55;;;;;;;4.78;1.73;;;16.70;99.90;;;;;;5026588;28;20030;-49
2022/07/22 02:05:21;;;;;;;8.32;1.77;;;16.70;99.90;;;;;;5032574;28;20037;-52
2022/07/22 02:07:46;;;;;;;9.38;2.55;;;16.70;99.90;;;;;;5029802;28;20034;-52
2022/07/22 02:10:12;;;;;;;11.13;2.50;;;16.70;99.90;;;;;;5033093;28;20052;-46
2022/07/22 02:12:37;;;;;;;8.88;2.22;;;16.70;99.90;;;;;;5027837;28;20042;-52
2022/07/22 02:15:04;;;;;;;8.35;1.80;;;16.70;99.90;;;;;;5013695;28;20053;-52
2022/07/22 02:17:29;;;;;;;;;;;16.70;99.90;;;;;;5013986;28;20087;-52
2022/07/22 02:19:55;;;;;;;7.32;1.67;;;16.70;99.90;;;;;;5033422;28;20271;-48
2022/07/22 02:22:20;;;;;;;6.95;1.90;;;16.70;99.90;;;;;;5032046;28;20034;-50
2022/07/22 02:24:46;;;;;;;7.85;2.08;;;16.70;99.90;;;;;;5031799;28;20053;-51
2022/07/22 02:27:12;;;;;;;4.50;1.75;;;16.70;99.90;;;;;;5015368;28;20037;-52
2022/07/22 02:29:37;;;;;;;8.52;1.58;;;16.70;99.90;;;;;;5016134;28;20060;-50
2022/07/22 02:32:03;;;;;;;9.07;1.83;;;16.70;99.90;;;;;;5014656;28;20034;-52
2022/07/22 02:34:29;;;;;;;10.43;1.45;;;16.60;99.90;;;;;;5027280;28;20043;-52
2022/07/22 02:36:55;;;;;;;6.22;2.20;;;16.60;99.90;;;;;;5028498;28;20100;-49
2022/07/22 02:39:21;;;;;;;7.25;1.23;;;16.60;99.90;;;;;;5031822;28;20037;-49
2022/07/22 02:41:46;;;;;;;8.93;1.70;;;16.60;99.90;;;;;;5023538;28;20026;-49
2022/07/22 02:44:12;;;;;;;10.85;2.33;;;16.60;99.90;;;;;;5042492;28;20121;-50
2022/07/22 02:46:37;;;;;;;4.50;1.70;;;16.60;99.90;;;;;;5018115;28;20564;-49
2022/07/22 02:49:04;;;;;;;9.18;1.42;;;16.60;99.90;;;;;;5012676;28;20438;-52
2022/07/22 02:51:30;;;;;;;11.10;1.70;;;16.60;99.90;;;;;;5018780;28;20111;-48
2022/07/22 02:53:55;;;;;;;11.07;1.75;;;16.60;99.90;;;;;;5030373;28;20472;-48
2022/07/22 02:56:21;;;;;;;9.20;2.20;;;16.60;99.90;;;;;;5027983;28;20038;-52
2022/07/22 02:58:47;;;;;;;7.03;1.73;;;16.60;99.90;;;;;;5016461;28;20487;-50
2022/07/22 03:01:13;;;;;;;6.20;1.73;;;16.60;99.90;;;;;;5014881;28;20029;-51
2022/07/22 03:03:39;;;;;;;6.07;2.60;;;16.60;99.90;;;;;;5013294;28;20030;-46
2022/07/22 03:06:05;;;;;;;10.82;1.80;;;16.50;99.90;;;;;;5013923;28;20034;-48
2022/07/22 03:08:31;;;;;;;7.35;2.25;;;16.50;99.90;;;;;;5026306;28;20041;-51
2022/07/22 03:10:56;;;;;;;4.82;1.58;;;16.50;99.90;;;;;;5030796;28;20046;-52
2022/07/22 03:13:22;;;;;;;8.30;1.85;;;16.50;99.90;;;;;;5011455;28;20419;-50
2022/07/22 03:15:47;;;;;;;10.15;1.88;;;16.50;99.90;;;;;;5018726;28;20041;-49
2022/07/22 03:18:13;;;;;;;9.13;1.55;;;16.50;99.90;;;;;;5014779;28;20042;-49
2022/07/22 03:20:38;;;;;;;8.25;1.65;;;16.50;99.90;;;;;;5021954;28;20037;-48
2022/07/22 03:23:04;;;;;;;5.43;1.23;;;16.50;99.90;;;;;;5022228;28;20068;-49
2022/07/22 03:25:31;;;;;;;7.93;2.03;;;16.50;99.90;;;;;;5030671;28;20046;-49
2022/07/22 03:27:57;;;;;;;8.73;2.17;;;16.50;99.90;;;;;;5016874;28;20050;-49
2022/07/22 03:30:22;;;;;;;10.00;1.65;;;16.50;99.90;;;;;;5014957;28;20518;-48
2022/07/22 03:32:48;;;;;;;8.90;1.73;;;16.50;99.90;;;;;;5019602;28;20067;-51
2022/07/22 03:35:14;;;;;;;11.23;1.77;;;16.50;99.90;;;;;;5012103;28;20076;-49
2022/07/22 03:37:40;;;;;;;6.25;1.38;;;16.50;99.90;;;;;;5022660;28;20052;-51
2022/07/22 03:40:06;;;;;;;10.32;1.95;;;16.40;99.90;;;;;;5031933;28;20510;-48
2022/07/22 03:42:31;;;;;;;;;;;16.40;99.90;;;;;;5022995;28;20080;-47
2022/07/22 03:44:57;;;;;;;4.53;0.73;;;16.40;99.90;;;;;;5018960;28;19968;-49
2022/07/22 03:47:23;;;;;;;10.27;1.70;;;16.40;99.90;;;;;;5017986;28;20407;-49
2022/07/22 03:49:50;;;;;;;5.90;1.17;;;16.40;99.90;;;;;;5031774;28;20037;-47
2022/07/22 03:52:16;;;;;;;6.57;1.27;;;16.30;99.90;;;;;;5028730;28;20034;-51
2022/07/22 03:54:42;;;;;;;6.20;1.15;;;16.40;99.90;;;;;;5031362;28;20044;-48
2022/07/22 03:57:08;;;;;;;5.47;1.33;;;16.40;99.90;;;;;;5029211;28;20040;-46
2022/07/22 03:59:34;;;;;;;5.10;1.17;;;16.40;99.90;;;;;;5031695;28;20388;-50
2022/07/22 04:02:00;;;;;;;;;;;16.40;99.90;;;;;;5025716;28;20129;-52
2022/07/22 04:04:25;;;;;;;5.43;1.25;;;16.40;99.90;;;;;;5011497;28;20316;-49
2022/07/22 04:06:51;;;;;;;5.35;0.80;;;16.40;99.90;;;;;;5011683;28;20158;-49
2022/07/22 04:09:17;;;;;;;8.75;1.10;;;16.40;99.90;;;;;;5012353;28;20042;-46
2022/07/22 04:11:43;;;;;;;5.07;1.27;;;16.40;99.90;;;;;;5011473;28;20038;-51
2022/07/22 04:14:08;;;;;;;2.40;0.63;;;16.40;99.90;;;;;;5012132;28;20046;-50
2022/07/22 04:16:34;;;;;;;8.50;1.17;;;16.40;99.90;;;;;;5012489;28;20049;-49
2022/07/22 04:19:01;;;;;;;7.40;1.13;;;16.40;99.90;;;;;;5013711;28;20046;-49
2022/07/22 04:21:27;;;;;;;8.52;1.25;;;16.40;99.90;;;;;;5010958;28;20034;-51
2022/07/22 04:23:53;;;;;;;7.03;0.95;;;16.40;99.90;;;;;;5008883;28;20117;-50
2022/07/22 04:26:18;;;;;;;4.68;0.98;;;16.30;99.90;;;;;;5011113;28;20096;-51
2022/07/22 04:28:44;;;;;;;7.18;1.10;;;16.30;99.90;;;;;;5025774;28;20045;-49
2022/07/22 04:31:10;;;;;;;7.45;0.90;;;16.40;99.90;;;;;;5017431;28;20435;-50
2022/07/22 04:33:35;;;;;;;5.93;1.17;;;16.30;99.90;;;;;;5021777;28;20406;-50
2022/07/22 04:36:01;;;;;;;4.93;1.10;;;16.40;99.90;;;;;;5030216;28;20041;-51
2022/07/22 04:38:27;;;;;;;7.20;1.48;;;16.40;99.90;;;;;;5029110;28;20553;-48
2022/07/22 04:40:53;;;;;;;3.55;1.00;;;16.40;99.90;;;;;;5030855;28;20034;-50
2022/07/22 04:43:18;;;;;;;7.03;1.50;;;16.40;99.90;;;;;;5017691;28;20080;-51
2022/07/22 04:45:44;;;;;;;10.23;1.85;;;16.40;99.90;;;;;;5030684;28;20310;-49
2022/07/22 04:48:09;;;;;;;9.32;1.95;;;16.50;99.90;;;;;;5020423;28;20073;-50
2022/07/22 04:50:38;;;;;;;30.60;3.72;;;16.40;99.90;;;;;;5030306;28;20072;-52
2022/07/22 04:53:04;;;;;;;6.05;1.50;;;16.50;99.90;;;;;;5027828;28;20037;-48
2022/07/22 04:55:29;;;;;;;5.60;1.73;;;16.50;99.90;;;;;;5029870;28;20052;-52
2022/07/22 04:57:55;;;;;;;6.55;1.42;;;16.50;99.90;;;;;;5020865;28;20081;-49
2022/07/22 05:00:22;;;;;;;9.65;1.40;;;16.50;99.90;;;;;;5030775;28;20087;-47
2022/07/22 05:02:47;;;;;;;14.25;2.13;;;16.60;99.90;;;;;;5018823;28;20049;-49
2022/07/22 05:05:13;;;;;;;8.55;1.67;;;16.60;99.90;;;;;;5020559;28;20340;-48
2022/07/22 05:07:39;;;;;;;8.77;1.90;;;16.60;99.90;;;;;;5016337;28;20175;-50
2022/07/22 05:10:05;;;;;;;9.25;1.90;;;16.60;99.90;;;;;;5028159;28;20038;-50
2022/07/22 05:12:31;;;;;;;11.25;1.45;;;16.60;99.90;;;;;;5022341;28;20089;-47
2022/07/22 05:14:56;;;;;;;7.05;1.80;;;16.60;99.90;;;;;;5020417;28;20075;-48
2022/07/22 05:17:22;;;;;;;6.65;1.40;;;16.70;99.90;;;;;;5029509;28;20120;-48
2022/07/22 05:19:47;;;;;;;6.20;1.15;;;16.70;99.90;;;;;;5019646;28;20046;-51
2022/07/22 05:22:13;;;;;;;11.30;1.27;;;16.70;99.90;;;;;;5011655;28;20034;-52
2022/07/22 05:24:38;;;;;;;5.75;1.08;;;16.80;99.90;;;;;;5016307;28;20407;-49
2022/07/22 05:27:04;;;;;;;6.93;1.92;;;16.70;99.90;;;;;;5029214;28;20073;-48
2022/07/22 05:29:30;;;;;;;2.65;0.98;;;16.80;99.90;;;;;;5023513;28;20038;-51
2022/07/22 05:31:56;;;;;;;5.20;1.05;;;16.80;99.90;;;;;;5010413;28;20048;-52
2022/07/22 05:34:22;;;;;;;4.03;1.75;;;16.80;99.90;;;;;;5012374;28;20049;-51
2022/07/22 05:36:47;;;;;;;7.70;1.15;;;16.80;99.90;;;;;;5026046;28;20034;-47
2022/07/22 05:39:13;;;;;;;5.68;1.13;;;16.80;99.90;;;;;;5028580;28;20042;-49
2022/07/22 05:41:39;;;;;;;10.93;2.33;;;16.80;99.90;;;;;;5030481;28;20491;-48
2022/07/22 05:44:05;;;;;;;11.65;1.30;;;16.80;99.90;;;;;;5027793;28;20069;-51
2022/07/22 05:46:31;;;;;;;5.38;0.93;;;16.70;99.90;;;;;;5012711;28;20046;-49
2022/07/22 05:48:57;;;;;;;10.35;1.10;;;16.80;99.90;;;;;;5029727;28;20091;-48
2022/07/22 05:51:22;;;;;;;5.25;1.67;;;16.80;99.90;;;;;;5012091;28;20400;-52
2022/07/22 05:53:48;;;;;;;3.88;1.00;;;16.80;99.90;;;;;;5010053;28;20132;-50
2022/07/22 05:56:14;;;;;;;8.70;1.17;;;16.80;99.90;;;;;;5011846;28;20359;-47
2022/07/22 05:58:41;;;;;;;5.60;1.05;;;16.80;99.90;;;;;;5024866;28;20037;-49
2022/07/22 06:01:07;;;;;;;4.53;0.82;;;16.80;99.90;;;;;;5014770;28;20053;-47
2022/07/22 06:03:33;;;;;;;9.77;1.25;;;16.80;99.90;;;;;;5009906;28;20045;-48
2022/07/22 06:06:01;;;;;;;7.38;0.80;;;16.80;99.90;;;;;;5023671;28;20045;-52
2022/07/22 06:08:27;;;;;;;5.50;1.25;;;16.80;99.90;;;;;;5029262;28;20113;-47
2022/07/22 06:10:52;;;;;;;5.25;1.20;;;16.80;99.90;;;;;;5022189;28;20045;-51
2022/07/22 06:13:18;;;;;;;8.90;0.95;;;16.80;99.90;;;;;;5029120;28;20068;-47
2022/07/22 06:15:43;;;;;;;9.48;1.00;;;16.90;99.90;;;;;;5022073;28;20045;-47
2022/07/22 06:18:09;;;;;;;2.47;0.73;;;16.90;99.90;;;;;;5009435;28;20141;-50
2022/07/22 06:20:34;;;;;;;9.60;1.05;;;17.00;99.90;;;;;;5018197;28;20034;-46
2022/07/22 06:23:01;;;;;;;4.50;0.90;;;17.00;99.90;;;;;;5028873;28;20550;-52
2022/07/22 06:25:26;;;;;;;;;;;17.10;99.90;;;;;;5028127;28;20431;-52
2022/07/22 06:27:52;;;;;;;3.22;1.13;;;17.00;99.90;;;;;;5013450;28;19917;-51
2022/07/22 06:30:17;;;;;;;5.47;1.15;;;17.10;99.90;;;;;;5013575;28;20044;-46
2022/07/22 06:32:43;;;;;;;3.53;0.75;;;17.20;99.90;;;;;;5016195;28;20041;-51
2022/07/22 06:35:09;;;;;;;6.35;0.95;;;17.20;99.90;;;;;;5026867;28;20756;-52
2022/07/22 06:37:35;;;;;;;4.88;1.33;;;17.20;99.90;;;;;;5019166;28;20053;-51
2022/07/22 06:40:00;;;;;;;4.18;0.70;;;17.30;99.90;;;;;;5018720;28;20064;-51
2022/07/22 06:42:26;;;;;;;4.50;0.82;;;17.30;99.90;;;;;;5021825;28;20040;-48
2022/07/22 06:44:52;;;;;;;4.15;1.02;;;17.40;99.90;;;;;;5020710;28;20045;-51
2022/07/22 06:47:17;;;;;;;4.28;1.02;;;17.40;99.90;;;;;;5012707;28;20112;-50
2022/07/22 06:49:43;;;;;;;5.43;1.35;;;17.40;99.90;;;;;;5013333;28;20127;-51
2022/07/22 06:52:08;;;;;;;2.55;0.45;;;17.50;99.90;;;;;;5014838;28;20117;-49
2022/07/22 06:54:34;;;;;;;7.45;1.67;;;17.50;99.90;;;;;;5022019;28;20080;-48
2022/07/22 06:56:59;;;;;;;4.45;0.82;;;17.50;99.90;;;;;;5018115;28;20100;-46
2022/07/22 06:59:25;;;;;;;9.57;1.67;;;17.50;99.90;;;;;;5013275;28;20120;-51
2022/07/22 07:01:51;;;;;;;4.05;0.55;;;17.50;99.90;;;;;;5019705;28;20034;-50
2022/07/22 07:04:18;;;;;;;2.85;0.57;;;17.60;99.90;;;;;;5012834;28;20038;-49
2022/07/22 07:06:44;;;;;;;5.97;0.77;;;17.60;99.90;;;;;;5016312;28;20079;-50
2022/07/22 07:09:09;;;;;;;6.15;0.70;;;17.60;99.90;;;;;;5023344;28;20037;-51
2022/07/22 07:11:35;;;;;;;9.02;1.30;;;17.60;99.90;;;;;;5032098;28;20099;-51
2022/07/22 07:14:01;;;;;;;4.70;0.75;;;17.60;99.90;;;;;;5032254;28;20080;-50
2022/07/22 07:16:27;;;;;;;3.53;0.75;;;17.60;99.90;;;;;;5027628;28;20340;-51
2022/07/22 07:18:52;;;;;;;4.05;0.70;;;17.70;99.90;;;;;;5024130;28;20645;-48
2022/07/22 07:21:18;;;;;;;5.82;0.90;;;17.70;99.90;;;;;;5012914;28;20399;-48
2022/07/22 07:23:44;;;;;;;7.18;0.93;;;17.70;99.90;;;;;;5012333;28;20030;-49
2022/07/22 07:26:10;;;;;;;7.07;0.90;;;17.80;99.90;;;;;;5022135;28;20041;-47
2022/07/22 07:28:36;;;;;;;5.10;1.08;;;17.80;99.90;;;;;;5031076;28;20048;-52
2022/07/22 07:31:02;;;;;;;2.90;0.57;;;17.80;99.90;;;;;;5030978;28;20045;-46
2022/07/22 07:33:27;;;;;;;1.52;0.82;;;17.90;99.90;;;;;;5023318;28;20041;-47
2022/07/22 07:35:53;;;;;;;6.13;0.93;;;18.00;99.90;;;;;;5029098;28;20387;-48
2022/07/22 07:38:19;;;;;;;4.32;0.40;;;17.90;99.90;;;;;;5012077;28;20053;-51
2022/07/22 07:40:44;;;;;;;3.10;0.50;;;18.00;99.90;;;;;;5013364;28;20376;-50
2022/07/22 07:43:10;;;;;;;2.33;0.40;;;18.10;99.90;;;;;;5031967;28;20045;-47
2022/07/22 07:45:36;;;;;;;2.72;0.40;;;18.10;99.90;;;;;;5030358;28;20048;-46
2022/07/22 07:48:02;;;;;;;6.78;1.65;;;18.10;99.90;;;;;;5016163;28;20052;-51
2022/07/22 07:50:28;;;;;;;5.32;0.60;;;18.10;99.90;;;;;;5012048;28;20171;-49
2022/07/22 07:52:55;;;;;;;6.97;1.10;;;18.10;99.90;;;;;;5011463;28;20128;-50
2022/07/22 07:55:21;;;;;;;1.95;0.52;;;18.10;99.90;;;;;;5011875;28;20056;-51
2022/07/22 07:57:48;;;;;;;5.78;0.82;;;18.10;99.90;;;;;;5021910;28;20117;-50
2022/07/22 08:00:15;;;;;;;4.63;0.70;;;18.10;99.90;;;;;;5030924;28;20506;-52
2022/07/22 08:02:40;;;;;;;3.80;0.35;;;18.10;99.90;;;;;;5031402;28;20052;-51
2022/07/22 08:05:07;;;;;;;5.70;0.68;;;18.00;99.90;;;;;;5031580;28;20120;-51
2022/07/22 08:07:33;;;;;;;5.80;0.50;;;18.10;99.90;;;;;;5022052;28;20033;-52
2022/07/22 08:09:59;;;;;;;2.63;0.52;;;18.10;99.90;;;;;;5011515;28;20044;-50
2022/07/22 08:12:24;;;;;;;3.33;0.38;;;18.10;99.90;;;;;;5011953;28;20042;-52
2022/07/22 08:14:50;;;;;;;3.25;0.40;;;18.10;99.90;;;;;;5015370;28;20448;-49
2022/07/22 08:17:15;;;;;;;2.20;0.30;;;18.10;99.90;;;;;;5019433;28;20263;-51
2022/07/22 08:19:41;;;;;;;2.53;0.50;;;18.20;99.90;;;;;;5024094;28;20499;-52
2022/07/22 08:22:06;;;;;;;3.60;0.65;;;18.20;99.90;;;;;;5018303;28;20488;-50
2022/07/22 08:24:33;;;;;;;4.18;0.70;;;18.20;99.90;;;;;;5024811;28;20041;-52
2022/07/22 08:26:59;;;;;;;2.03;0.30;;;18.30;99.90;;;;;;5026465;28;20483;-51
2022/07/22 08:29:24;;;;;;;3.00;0.30;;;18.30;99.90;;;;;;5023174;28;20163;-50
2022/07/22 08:31:50;;;;;;;4.32;0.32;;;18.30;99.90;;;;;;5021270;28;20116;-52
2022/07/22 08:34:15;;;;;;;2.92;0.30;;;18.30;99.90;;;;;;5021373;28;20048;-51
2022/07/22 08:36:41;;;;;;;1.10;0.30;;;18.40;99.90;;;;;;5028584;28;20120;-48
2022/07/22 08:39:07;;;;;;;3.78;0.50;;;18.40;99.90;;;;;;5018085;28;20042;-51
2022/07/22 08:41:37;;;;;;;2.67;0.43;;;18.40;99.90;;;;;;5021202;28;20538;-51
2022/07/22 08:44:08;;;;;;;2.42;0.25;;;18.40;99.90;;;;;;5027332;28;20104;-52
2022/07/22 08:46:34;;;;;;;3.33;0.60;;;18.40;99.90;;;;;;5026939;28;20045;-49
2022/07/22 08:49:01;;;;;;;4.38;0.40;;;18.50;99.90;;;;;;5019577;28;20049;-49
2022/07/22 08:51:27;;;;;;;;;;;18.50;99.90;;;;;;5029798;28;20081;-50
2022/07/22 08:53:53;;;;;;;4.55;0.40;;;18.50;99.90;;;;;;5020027;28;20356;-51
2022/07/22 08:56:19;;;;;;;2.05;0.30;;;18.50;99.90;;;;;;5028417;28;20041;-50
2022/07/22 08:58:45;;;;;;;2.15;0.40;;;18.40;99.90;;;;;;5025825;28;20089;-46
2022/07/22 09:01:17;;;;;;;2.35;0.57;;;18.50;99.90;;;;;;5026486;28;20050;-48
2022/07/22 09:03:51;;;;;;;4.40;0.77;;;18.50;99.80;;;;;;5014368;28;20103;-49
2022/07/22 09:06:20;;;;;;;6.95;0.50;;;18.50;99.90;;;;;;5019151;28;20053;-49
2022/07/22 09:09:03;;;;;;;3.00;0.30;;;18.60;99.90;;;;;;5023835;28;20033;-48
2022/07/22 09:11:30;;;;;;;43.78;2.53;;;18.60;99.60;;;;;;5015814;28;20089;-48
2022/07/22 09:13:58;;;;;;;2.28;0.55;;;18.70;99.90;;;;;;5021637;28;20099;-52
2022/07/22 09:16:42;;;;;;;3.35;0.40;;;18.70;99.80;;;;;;5014739;28;20060;-52
2022/07/22 09:19:09;;;;;;;3.67;0.50;;;18.80;99.40;;;;;;5016764;28;20395;-47
2022/07/22 09:21:37;;;;;;;4.07;0.50;;;18.80;99.60;;;;;;5025292;28;20037;-48
2022/07/22 09:24:04;;;;;;;1.35;0.30;;;18.90;99.70;;;;;;5018046;28;20035;-47
2022/07/22 09:26:39;;;;;;;2.78;0.68;;;18.90;99.50;;;;;;5020235;28;20076;-52
2022/07/22 09:29:06;;;;;;;2.33;0.30;;;18.90;99.50;;;;;;5016540;28;20038;-49
2022/07/22 09:31:36;;;;;;;2.78;0.40;;;18.90;99.70;;;;;;5019002;28;20046;-47
2022/07/22 09:34:04;;;;;;;3.25;0.40;;;18.90;99.20;;;;;;5016253;28;20475;-51
2022/07/22 09:36:30;;;;;;;4.05;0.40;;;19.00;99.60;;;;;;5018639;28;20056;-46
2022/07/22 09:38:57;;;;;;;2.60;0.40;;;19.00;99.60;;;;;;5017895;28;20046;-51
2022/07/22 09:41:23;;;;;;;2.47;0.30;;;19.00;99.40;;;;;;5033664;28;20048;-50
2022/07/22 09:43:49;;;;;;;;;;;19.10;99.30;;;;;;5020755;28;20026;-46
2022/07/22 09:46:16;;;;;;;2.42;0.30;;;19.10;98.90;;;;;;5016204;28;20019;-50
2022/07/22 09:48:43;;;;;;;2.92;0.30;;;19.10;99.10;;;;;;5019746;28;20041;-51
2022/07/22 09:51:09;;;;;;;2.38;0.50;;;19.10;99.30;;;;;;5024178;28;20061;-51
2022/07/22 09:53:35;;;;;;;5.03;0.50;;;19.20;99.00;;;;;;5024556;28;20041;-53
2022/07/22 09:56:03;;;;;;;5.03;0.50;;;19.20;99.20;;;;;;5017999;28;20514;-49
2022/07/22 09:58:30;;;;;;;4.97;0.60;;;19.30;99.30;;;;;;5026377;28;20126;-50
2022/07/22 10:00:59;;;;;;;4.93;0.40;;;19.30;99.30;;;;;;5020624;28;20034;-46
2022/07/22 10:03:30;;;;;;;3.42;0.77;;;19.40;99.40;;;;;;5023540;28;20438;-48
2022/07/22 10:05:57;;;;;;;4.32;0.70;;;19.40;98.90;;;;;;5022565;28;20538;-50
2022/07/22 10:08:25;;;;;;;3.80;0.35;;;19.50;99.10;;;;;;5023215;28;20056;-47
2022/07/22 10:10:53;;;;;;;1.67;0.50;;;19.50;98.80;;;;;;5023174;28;20135;-47
2022/07/22 10:13:19;;;;;;;5.50;0.40;;;19.50;99.00;;;;;;5022724;28;20041;-51
2022/07/22 10:15:46;;;;;;;3.78;0.20;;;19.50;98.90;;;;;;5017414;28;20171;-48
2022/07/22 10:18:17;;;;;;;5.20;0.60;;;19.50;98.80;;;;;;5013732;28;20466;-51
2022/07/22 10:20:43;;;;;;;6.32;0.90;;;19.50;98.80;;;;;;5029004;28;20494;-47
2022/07/22 10:23:11;;;;;;;3.53;0.90;;;19.50;99.10;;;;;;5031401;28;20030;-46
2022/07/22 10:25:54;;;;;;;4.25;0.57;;;19.50;98.90;;;;;;5021359;28;20244;-50
2022/07/22 10:28:29;;;;;;;3.50;0.57;;;19.50;99.00;;;;;;5014143;28;20384;-45
2022/07/22 10:31:22;;;;;;;3.85;0.35;;;19.50;99.00;;;;;;5029521;28;20041;-48
2022/07/22 10:33:51;;;;;;;5.80;0.47;;;19.50;98.40;;;;;;5027312;28;20045;-45
2022/07/22 10:36:42;;;;;;;3.90;1.00;;;19.50;98.70;;;;;;5017985;28;20610;-46
2022/07/22 10:39:12;;;;;;;3.60;0.73;;;19.50;98.20;;;;;;5014757;28;20045;-45
2022/07/22 10:41:41;;;;;;;4.53;0.40;;;19.50;98.10;;;;;;5013675;28;20037;-47
2022/07/22 10:44:07;;;;;;;3.75;0.50;;;19.40;97.80;;;;;;5024151;28;20034;-45
2022/07/22 10:46:52;;;;;;;;;;;19.50;97.90;;;;;;5024002;28;20053;-48
2022/07/22 10:49:20;;;;;;;1.63;0.30;;;19.50;96.90;;;;;;5033095;28;19959;-46
2022/07/22 10:52:08;;;;;;;2.97;0.60;;;19.50;97.50;;;;;;5032204;28;20506;-47
2022/07/22 10:54:53;;;;;;;2.25;0.40;;;19.60;97.50;;;;;;5028713;28;20045;-46
2022/07/22 10:57:32;;;;;;;6.20;0.80;;;19.60;97.40;;;;;;5033022;28;20048;-45
2022/07/22 10:59:57;;;;;;;3.78;0.43;;;19.70;97.30;;;;;;5024885;28;20124;-51
2022/07/22 11:02:25;;;;;;;3.33;0.38;;;19.80;97.00;;;;;;5032780;28;20112;-46
2022/07/22 11:04:51;;;;;;;1.73;0.20;;;19.90;97.10;;;;;;5022515;28;20084;-46
2022/07/22 11:07:17;;;;;;;3.17;0.50;;;20.00;97.70;;;;;;5030046;28;20426;-46
2022/07/22 11:09:43;;;;;;;1.77;0.25;;;20.10;97.00;;;;;;5020569;28;20507;-46
2022/07/22 11:12:14;;;;;;;1.63;0.28;;;20.00;96.50;;;;;;5017259;28;20041;-45
2022/07/22 11:14:40;;;;;;;4.45;0.35;;;20.00;96.70;;;;;;5030952;28;20495;-45
2022/07/22 11:17:13;;;;;;;3.20;0.77;;;20.00;97.00;;;;;;5020259;28;20279;-46
2022/07/22 11:19:39;;;;;;;2.35;0.30;;;20.00;96.70;;;;;;5022249;28;20045;-44
2022/07/22 11:22:05;;;;;;;3.65;0.38;;;20.00;96.90;;;;;;5014312;28;20041;-49
2022/07/22 11:24:32;;;;;;;1.63;0.30;;;20.10;96.60;;;;;;5024917;28;20045;-46
2022/07/22 11:27:00;;;;;;;2.90;0.30;;;20.10;96.30;;;;;;5015899;28;20038;-47
2022/07/22 11:29:35;;;;;;;2.97;0.38;;;20.10;96.20;;;;;;5013020;28;20064;-45
2022/07/22 11:32:02;;;;;;;3.63;0.40;;;20.00;96.10;;;;;;5013542;28;20060;-45
2022/07/22 11:34:28;;;;;;;1.02;0.38;;;20.00;96.60;;;;;;5031572;28;20325;-45
2022/07/22 11:36:55;;;;;;;1.65;0.50;;;20.00;96.60;;;;;;5026080;28;20064;-46
2022/07/22 11:39:26;;;;;;;3.25;0.32;;;20.00;96.50;;;;;;5029608;28;20060;-47
2022/07/22 11:41:54;;;;;;;1.65;0.55;;;20.00;96.50;;;;;;5027795;28;20037;-45
2022/07/22 11:44:21;;;;;;;5.90;0.88;;;20.00;96.60;;;;;;5019173;28;20037;-45
2022/07/22 11:46:48;;;;;;;3.60;0.40;;;20.00;96.60;;;;;;5029076;28;20033;-48
2022/07/22 11:49:15;;;;;;;2.53;0.43;;;20.00;96.60;;;;;;5024880;28;20037;-49
2022/07/22 11:51:41;;;;;;;2.58;0.30;;;20.00;96.40;;;;;;5025712;28;20041;-48
2022/07/22 11:54:07;;;;;;;3.50;0.45;;;19.90;96.80;;;;;;5028670;28;20044;-51
2022/07/22 11:56:33;;;;;;;2.78;0.57;;;19.90;96.70;;;;;;5029010;28;20033;-46
2022/07/22 11:59:04;;;;;;;2.25;0.50;;;19.90;97.00;;;;;;5031377;28;20033;-45
2022/07/22 12:01:31;;;;;;;2.35;0.50;;;19.90;96.80;;;;;;5026033;28;20051;-50
2022/07/22 12:04:03;;;;;;;3.05;0.55;;;19.90;97.10;;;;;;5017705;28;20052;-49
2022/07/22 12:06:33;;;;;;;2.42;0.40;;;19.90;96.70;;;;;;5019242;28;20498;-52
2022/07/22 12:09:09;;;;;;;3.80;0.50;;;19.80;96.90;;;;;;5029667;28;20040;-45
2022/07/22 12:11:37;;;;;;;6.35;0.55;;;19.80;97.30;;;;;;5024386;28;20064;-51
2022/07/22 12:14:13;;;;;;;2.63;0.38;;;19.70;97.80;;;;;;5023087;28;20370;-47
2022/07/22 12:16:40;;;;;;;2.95;0.40;;;19.70;97.80;;;;;;5029234;28;20399;-45
2022/07/22 12:19:09;;;;;;;4.38;0.73;;;19.70;98.10;;;;;;5030040;28;20041;-47
2022/07/22 12:21:49;;;;;;;3.67;0.70;;;19.70;98.00;;;;;;5026298;28;20045;-49
2022/07/22 12:24:14;;;;;;;4.95;0.60;;;19.70;98.20;;;;;;5012464;28;20041;-46
2022/07/22 12:26:44;;;;;;;6.18;0.63;;;19.70;97.70;;;;;;5026491;28;20037;-45
2022/07/22 12:29:21;;;;;;;4.07;0.70;;;19.70;98.10;;;;;;5011331;28;20042;-45
2022/07/22 12:31:53;;;;;;;2.70;0.65;;;19.70;97.90;;;;;;5011378;28;20507;-47
2022/07/22 12:34:40;;;;;;;26.83;2.45;;;19.70;98.20;;;;;;5019962;28;20045;-48
2022/07/22 12:37:26;;;;;;;3.17;0.60;;;19.70;98.40;;;;;;5016051;28;20041;-49
2022/07/22 12:40:08;;;;;;;5.30;0.63;;;19.70;98.00;;;;;;5030702;28;20094;-50
2022/07/22 12:42:58;;;;;;;5.18;0.40;;;19.70;98.10;;;;;;5011107;28;20503;-50
2022/07/22 12:45:26;;;;;;;3.15;0.40;;;19.70;98.10;;;;;;5011520;28;20042;-48
2022/07/22 12:47:59;;;;;;;3.08;0.60;;;19.70;98.10;;;;;;5010970;28;20038;-48